Time;durP1;ratioP1;P1;durP2;ratioP2;P2;SDS_P1;SDS_P2;PMS_P1;PMS_P2;Temp;Humidity;BMP_temperature;BMP_pressure;BME280_temperature;BME280_humidity;BME280_pressure;Samples;Min_cycle;Max_cycle;Signal;HPM_P1;HPM_P2
2021/05/09 00:00:22;;;;;;;0.93;0.40;;;;;;;;;;4999253;28;20026;-76
2021/05/09 00:02:48;;;;;;;0.40;0.40;;;;;;;;;;5012643;28;20458;-76
2021/05/09 00:05:13;;;;;;;0.50;0.50;;;;;;;;;;5013553;28;20101;-76
2021/05/09 00:07:38;;;;;;;0.75;0.57;;;;;;;;;;5013616;28;20061;-76
2021/05/09 00:10:04;;;;;;;0.30;0.30;;;;;;;;;;5000331;28;20110;-76
2021/05/09 00:12:29;;;;;;;0.28;0.28;;;;;;;;;;4997147;28;20021;-76
2021/05/09 00:14:55;;;;;;;0.30;0.30;;;;;;;;;;5012047;28;20545;-76
2021/05/09 00:17:22;;;;;;;0.30;0.30;;;;;;;;;;5013114;28;20111;-76
2021/05/09 00:19:47;;;;;;;1.13;0.40;;;;;;;;;;5013024;28;20022;-76
2021/05/09 00:22:13;;;;;;;0.30;0.30;;;;;;;;;;5013575;28;20084;-77
2021/05/09 00:24:38;;;;;;;0.40;0.40;;;;;;;;;;5013574;28;20446;-76
2021/05/09 00:27:03;;;;;;;0.30;0.30;;;;;;;;;;5014092;28;20033;-76
2021/05/09 00:29:28;;;;;;;0.25;0.25;;;;;;;;;;5017467;28;20460;-76
2021/05/09 00:31:54;;;;;;;0.50;0.50;;;;;;;;;;5017413;28;20049;-76
2021/05/09 00:34:19;;;;;;;0.50;0.50;;;;;;;;;;5015041;28;20271;-76
2021/05/09 00:36:44;;;;;;;0.40;0.40;;;;;;;;;;5011077;28;20465;-76
2021/05/09 00:39:09;;;;;;;0.40;0.40;;;;;;;;;;5016627;28;20025;-76
2021/05/09 00:41:35;;;;;;;0.32;0.30;;;;;;;;;;5017217;28;20317;-76
2021/05/09 00:44:00;;;;;;;0.20;0.20;;;;;;;;;;5017143;28;20461;-76
2021/05/09 00:46:25;;;;;;;0.28;0.28;;;;;;;;;;5017274;28;20033;-76
2021/05/09 00:48:51;;;;;;;0.20;0.20;;;;;;;;;;5015543;28;20026;-76
2021/05/09 00:51:18;;;;;;;0.95;0.22;;;;;;;;;;5016600;28;20026;-76
2021/05/09 00:53:45;;;;;;;0.30;0.30;;;;;;;;;;5016063;28;20025;-76
2021/05/09 00:56:12;;;;;;;0.30;0.30;;;;;;;;;;5016727;28;20141;-76
2021/05/09 00:58:41;;;;;;;0.40;0.40;;;;;;;;;;5016378;28;20018;-77
2021/05/09 01:01:06;;;;;;;0.17;0.17;;;;;;;;;;5015994;28;20544;-76
2021/05/09 01:03:34;;;;;;;0.30;0.30;;;;;;;;;;5016538;28;20018;-76
2021/05/09 01:05:59;;;;;;;0.20;0.20;;;;;;;;;;5014724;28;20030;-76
2021/05/09 01:08:25;;;;;;;0.22;0.22;;;;;;;;;;5015645;28;20112;-76
2021/05/09 01:10:52;;;;;;;0.20;0.20;;;;;;;;;;5015682;28;20089;-76
2021/05/09 01:13:17;;;;;;;0.30;0.30;;;;;;;;;;5015368;28;20018;-76
2021/05/09 01:15:44;;;;;;;0.30;0.30;;;;;;;;;;5015968;28;20024;-76
2021/05/09 01:18:10;;;;;;;0.30;0.30;;;;;;;;;;5016520;28;20018;-76
2021/05/09 01:20:35;;;;;;;0.20;0.20;;;;;;;;;;5020856;28;20022;-76
2021/05/09 01:23:01;;;;;;;0.30;0.30;;;;;;;;;;5009961;28;20092;-76
2021/05/09 01:25:27;;;;;;;0.22;0.22;;;;;;;;;;4996818;28;20030;-75
2021/05/09 01:27:52;;;;;;;0.30;0.30;;;;;;;;;;4998103;28;20018;-76
2021/05/09 01:30:17;;;;;;;0.30;0.30;;;;;;;;;;5014784;28;20033;-77
2021/05/09 01:32:42;;;;;;;0.30;0.30;;;;;;;;;;4999877;28;20030;-77
2021/05/09 01:35:08;;;;;;;0.40;0.40;;;;;;;;;;4997764;28;20022;-76
2021/05/09 01:37:36;;;;;;;0.30;0.30;;;;;;;;;;5011171;28;20054;-77
2021/05/09 01:40:04;;;;;;;0.17;0.17;;;;;;;;;;5015459;28;20087;-77
2021/05/09 01:42:29;;;;;;;0.30;0.30;;;;;;;;;;5014272;28;20021;-76
2021/05/09 01:44:55;;;;;;;0.50;0.30;;;;;;;;;;5015102;28;20103;-76
2021/05/09 01:47:21;;;;;;;0.32;0.32;;;;;;;;;;5014683;28;20104;-77
2021/05/09 01:49:46;;;;;;;0.20;0.20;;;;;;;;;;5015926;28;20026;-77
2021/05/09 01:52:11;;;;;;;0.30;0.30;;;;;;;;;;5010766;28;20031;-77
2021/05/09 01:54:37;;;;;;;0.40;0.40;;;;;;;;;;5012506;28;20097;-77
2021/05/09 01:57:02;;;;;;;0.32;0.32;;;;;;;;;;5015527;28;20030;-76
2021/05/09 01:59:27;;;;;;;0.30;0.30;;;;;;;;;;5013888;28;20018;-77
2021/05/09 02:01:53;;;;;;;0.40;0.40;;;;;;;;;;5015588;28;20373;-77
2021/05/09 02:04:18;;;;;;;0.30;0.30;;;;;;;;;;5013948;28;20395;-77
2021/05/09 02:06:43;;;;;;;0.30;0.30;;;;;;;;;;5010051;28;20025;-77
2021/05/09 02:09:10;;;;;;;0.40;0.40;;;;;;;;;;5014823;28;20018;-77
2021/05/09 02:11:36;;;;;;;0.30;0.30;;;;;;;;;;5013551;28;20664;-78
2021/05/09 02:14:01;;;;;;;0.32;0.32;;;;;;;;;;5014770;28;20030;-76
2021/05/09 02:16:26;;;;;;;0.40;0.40;;;;;;;;;;5015102;28;20026;-77
2021/05/09 02:18:51;;;;;;;0.45;0.45;;;;;;;;;;5010775;28;20443;-77
2021/05/09 02:21:17;;;;;;;0.50;0.40;;;;;;;;;;4996136;28;20030;-78
2021/05/09 02:23:42;;;;;;;0.68;0.40;;;;;;;;;;4997204;28;20022;-77
2021/05/09 02:26:07;;;;;;;0.43;0.30;;;;;;;;;;5013419;28;20056;-77
2021/05/09 02:28:32;;;;;;;0.30;0.30;;;;;;;;;;5014744;28;20285;-76
2021/05/09 02:31:00;;;;;;;0.22;0.22;;;;;;;;;;5011400;28;20038;-77
2021/05/09 02:33:25;;;;;;;0.40;0.40;;;;;;;;;;5014202;28;20037;-77
2021/05/09 02:35:50;;;;;;;0.28;0.28;;;;;;;;;;5010980;28;20398;-76
2021/05/09 02:38:16;;;;;;;0.30;0.30;;;;;;;;;;5012824;28;20069;-76
2021/05/09 02:40:41;;;;;;;0.30;0.30;;;;;;;;;;5014289;28;20025;-76
2021/05/09 02:43:07;;;;;;;0.40;0.40;;;;;;;;;;5018241;28;20022;-77
2021/05/09 02:45:32;;;;;;;0.20;0.20;;;;;;;;;;5014820;28;20080;-77
2021/05/09 02:47:57;;;;;;;0.30;0.30;;;;;;;;;;5015470;28;20092;-77
2021/05/09 02:50:22;;;;;;;0.30;0.30;;;;;;;;;;5014153;28;20026;-77
2021/05/09 02:52:48;;;;;;;0.30;0.30;;;;;;;;;;5014794;28;20084;-77
2021/05/09 02:55:13;;;;;;;0.20;0.20;;;;;;;;;;5014890;28;20033;-77
2021/05/09 02:57:38;;;;;;;0.20;0.20;;;;;;;;;;5014361;28;20030;-77
2021/05/09 03:00:06;;;;;;;0.52;0.32;;;;;;;;;;5014554;28;20022;-76
2021/05/09 03:02:32;;;;;;;0.30;0.30;;;;;;;;;;5013859;28;20109;-77
2021/05/09 03:04:59;;;;;;;0.20;0.20;;;;;;;;;;5014255;28;20041;-76
2021/05/09 03:07:25;;;;;;;0.20;0.20;;;;;;;;;;5011863;28;20018;-75
2021/05/09 03:09:50;;;;;;;0.20;0.20;;;;;;;;;;5012616;28;20079;-76
2021/05/09 03:12:15;;;;;;;0.30;0.30;;;;;;;;;;5006176;28;20025;-76
2021/05/09 03:14:43;;;;;;;0.20;0.20;;;;;;;;;;5012447;28;20021;-76
2021/05/09 03:17:08;;;;;;;0.30;0.30;;;;;;;;;;5013755;28;20478;-76
2021/05/09 03:19:33;;;;;;;0.20;0.20;;;;;;;;;;5013480;28;20109;-76
2021/05/09 03:21:58;;;;;;;0.40;0.35;;;;;;;;;;5013586;28;20152;-76
2021/05/09 03:24:26;;;;;;;0.40;0.28;;;;;;;;;;5013165;28;20029;-77
2021/05/09 03:26:53;;;;;;;0.30;0.30;;;;;;;;;;5013771;28;20065;-76
2021/05/09 03:29:21;;;;;;;0.30;0.30;;;;;;;;;;4995759;28;20027;-76
2021/05/09 03:31:46;;;;;;;0.20;0.20;;;;;;;;;;4993295;28;20026;-76
2021/05/09 03:34:11;;;;;;;0.30;0.30;;;;;;;;;;5007231;28;20048;-76
2021/05/09 03:36:36;;;;;;;0.30;0.30;;;;;;;;;;5010836;28;20355;-75
2021/05/09 03:39:02;;;;;;;0.52;0.40;;;;;;;;;;5013197;28;20061;-76
2021/05/09 03:41:27;;;;;;;0.30;0.30;;;;;;;;;;5010205;28;20021;-76
2021/05/09 03:43:55;;;;;;;0.20;0.20;;;;;;;;;;5012543;28;20084;-76
2021/05/09 03:46:20;;;;;;;0.28;0.20;;;;;;;;;;5013619;28;20029;-76
2021/05/09 03:48:45;;;;;;;0.30;0.25;;;;;;;;;;5013473;28;20030;-76
2021/05/09 03:51:10;;;;;;;0.40;0.40;;;;;;;;;;5013621;28;20087;-76
2021/05/09 03:53:36;;;;;;;0.30;0.30;;;;;;;;;;5013533;28;20018;-76
2021/05/09 03:56:01;;;;;;;0.30;0.30;;;;;;;;;;5013616;28;20022;-76
2021/05/09 03:58:26;;;;;;;0.30;0.30;;;;;;;;;;5011399;28;20073;-76
2021/05/09 04:00:51;;;;;;;0.30;0.20;;;;;;;;;;5013272;28;20029;-76
2021/05/09 04:03:26;;;;;;;0.20;0.20;;;;;;;;;;5013303;28;20046;-76
2021/05/09 04:05:52;;;;;;;0.30;0.30;;;;;;;;;;5013399;28;20525;-77
2021/05/09 04:08:24;;;;;;;0.20;0.20;;;;;;;;;;5013722;28;20069;-76
2021/05/09 04:10:51;;;;;;;0.30;0.30;;;;;;;;;;5013741;28;20026;-77
2021/05/09 04:13:16;;;;;;;0.30;0.30;;;;;;;;;;5013036;28;20451;-77
2021/05/09 04:15:43;;;;;;;0.20;0.20;;;;;;;;;;5013437;28;20037;-77
2021/05/09 04:18:08;;;;;;;0.30;0.30;;;;;;;;;;5013274;28;20112;-77
2021/05/09 04:20:34;;;;;;;0.30;0.30;;;;;;;;;;5013274;28;20117;-75
2021/05/09 04:23:13;;;;;;;0.40;0.40;;;;;;;;;;5011662;28;20026;-75
2021/05/09 04:25:39;;;;;;;0.65;0.30;;;;;;;;;;5011969;28;20104;-73
2021/05/09 04:28:04;;;;;;;0.30;0.30;;;;;;;;;;5012045;28;20451;-74
2021/05/09 04:30:30;;;;;;;0.20;0.20;;;;;;;;;;5013155;28;20097;-75
2021/05/09 04:33:02;;;;;;;0.30;0.30;;;;;;;;;;5013570;28;20443;-75
2021/05/09 04:35:27;;;;;;;0.32;0.32;;;;;;;;;;5008721;28;20113;-75
2021/05/09 04:37:53;;;;;;;0.20;0.20;;;;;;;;;;4993160;28;20066;-75
2021/05/09 04:40:18;;;;;;;0.55;0.30;;;;;;;;;;4995682;28;20381;-75
2021/05/09 04:42:43;;;;;;;0.40;0.40;;;;;;;;;;5011973;28;20092;-75
2021/05/09 04:45:11;;;;;;;0.25;0.25;;;;;;;;;;5012673;28;20050;-76
2021/05/09 04:47:37;;;;;;;0.30;0.30;;;;;;;;;;5011685;28;20402;-75
2021/05/09 04:50:02;;;;;;;0.25;0.25;;;;;;;;;;5013123;28;20018;-76
2021/05/09 04:52:28;;;;;;;0.30;0.30;;;;;;;;;;5012635;28;20018;-76
2021/05/09 04:54:53;;;;;;;0.25;0.25;;;;;;;;;;5013075;28;20083;-76
2021/05/09 04:57:20;;;;;;;0.20;0.20;;;;;;;;;;5012419;28;20343;-76
2021/05/09 04:59:45;;;;;;;0.40;0.40;;;;;;;;;;5012752;28;20085;-75
2021/05/09 05:02:11;;;;;;;0.20;0.20;;;;;;;;;;5012413;28;20025;-75
2021/05/09 05:04:36;;;;;;;0.30;0.30;;;;;;;;;;5011183;28;20022;-75
2021/05/09 05:07:03;;;;;;;0.30;0.30;;;;;;;;;;5012706;28;20032;-76
2021/05/09 05:09:28;;;;;;;0.30;0.30;;;;;;;;;;5012104;28;20068;-75
2021/05/09 05:11:55;;;;;;;0.32;0.32;;;;;;;;;;5012385;28;20469;-75
2021/05/09 05:14:20;;;;;;;0.38;0.38;;;;;;;;;;5015201;28;20030;-74
2021/05/09 05:16:45;;;;;;;0.40;0.40;;;;;;;;;;5015823;28;20189;-75
2021/05/09 05:19:10;;;;;;;0.40;0.40;;;;;;;;;;5016143;28;20056;-75
2021/05/09 05:21:36;;;;;;;0.40;0.40;;;;;;;;;;5007546;28;20331;-75
2021/05/09 05:24:01;;;;;;;0.40;0.40;;;;;;;;;;5014732;28;20370;-75
2021/05/09 05:26:26;;;;;;;0.30;0.30;;;;;;;;;;5015867;28;20485;-77
2021/05/09 05:28:51;;;;;;;0.73;0.50;;;;;;;;;;5014725;28;20117;-76
2021/05/09 05:31:17;;;;;;;0.40;0.40;;;;;;;;;;5015296;28;20022;-76
2021/05/09 05:33:43;;;;;;;0.50;0.50;;;;;;;;;;5015553;28;20105;-76
2021/05/09 05:36:11;;;;;;;0.40;0.40;;;;;;;;;;5011247;28;20414;-76
2021/05/09 05:38:36;;;;;;;0.50;0.50;;;;;;;;;;5014287;28;20117;-77
2021/05/09 05:41:02;;;;;;;0.40;0.40;;;;;;;;;;5013065;28;20125;-76
2021/05/09 05:43:28;;;;;;;0.60;0.60;;;;;;;;;;5011768;28;20099;-77
2021/05/09 05:45:54;;;;;;;0.95;0.63;;;;;;;;;;5013181;28;20068;-77
2021/05/09 05:48:20;;;;;;;0.50;0.50;;;;;;;;;;5015079;28;20029;-76
2021/05/09 05:50:48;;;;;;;0.60;0.50;;;;;;;;;;5017213;28;20343;-76
2021/05/09 05:53:20;;;;;;;0.60;0.60;;;;;;;;;;5014553;28;20083;-76
2021/05/09 05:55:46;;;;;;;0.60;0.40;;;;;;;;;;5011095;28;20022;-77
2021/05/09 05:58:11;;;;;;;0.40;0.40;;;;;;;;;;5011060;28;20033;-76
2021/05/09 06:00:36;;;;;;;0.50;0.50;;;;;;;;;;5014854;28;20014;-76
2021/05/09 06:03:07;;;;;;;0.60;0.60;;;;;;;;;;5014338;28;20033;-76
2021/05/09 06:05:32;;;;;;;0.50;0.50;;;;;;;;;;5014747;28;20037;-75
2021/05/09 06:07:57;;;;;;;0.80;0.60;;;;;;;;;;5013311;28;20079;-76
2021/05/09 06:10:23;;;;;;;0.57;0.52;;;;;;;;;;5013170;28;20022;-77
2021/05/09 06:13:02;;;;;;;0.85;0.40;;;;;;;;;;5018252;28;20082;-93
2021/05/09 06:15:29;;;;;;;0.50;0.50;;;;;;;;;;5019746;28;20026;-83
2021/05/09 06:17:54;;;;;;;0.98;0.70;;;;;;;;;;5014208;28;20026;-82
2021/05/09 06:20:20;;;;;;;0.40;0.40;;;;;;;;;;5020470;28;20405;-85
2021/05/09 06:22:48;;;;;;;0.75;0.57;;;;;;;;;;5024269;28;20105;-83
2021/05/09 06:25:14;;;;;;;0.50;0.50;;;;;;;;;;5019503;28;20037;-84
2021/05/09 06:27:46;;;;;;;0.47;0.43;;;;;;;;;;5031654;28;20036;-90
2021/05/09 06:30:12;;;;;;;0.60;0.60;;;;;;;;;;5033152;28;20060;-88
2021/05/09 06:32:39;;;;;;;0.50;0.50;;;;;;;;;;5018249;28;20045;-83
2021/05/09 06:35:04;;;;;;;1.02;0.50;;;;;;;;;;5015592;28;20371;-88
2021/05/09 06:37:31;;;;;;;0.82;0.60;;;;;;;;;;5012869;28;20050;-82
2021/05/09 06:39:59;;;;;;;0.52;0.40;;;;;;;;;;5017886;28;20462;-81
2021/05/09 06:42:24;;;;;;;1.00;0.60;;;;;;;;;;5014021;28;20037;-86
2021/05/09 06:44:57;;;;;;;0.70;0.68;;;;;;;;;;5019709;28;20014;-85
2021/05/09 06:47:22;;;;;;;0.80;0.70;;;;;;;;;;5021798;28;20032;-84
2021/05/09 06:49:48;;;;;;;0.65;0.60;;;;;;;;;;5021904;28;20042;-87
2021/05/09 06:52:13;;;;;;;0.60;0.60;;;;;;;;;;5025270;28;20037;-89
2021/05/09 06:54:38;;;;;;;0.93;0.50;;;;;;;;;;5023266;28;20248;-88
2021/05/09 06:57:03;;;;;;;0.70;0.60;;;;;;;;;;5022116;28;20022;-84
2021/05/09 06:59:29;;;;;;;0.65;0.52;;;;;;;;;;5026041;28;20014;-88
2021/05/09 07:01:55;;;;;;;0.55;0.50;;;;;;;;;;5021808;28;20082;-88
2021/05/09 07:04:20;;;;;;;0.60;0.40;;;;;;;;;;5024349;28;20323;-86
2021/05/09 07:06:45;;;;;;;0.40;0.40;;;;;;;;;;5019364;28;20022;-86
2021/05/09 07:09:10;;;;;;;1.70;0.50;;;;;;;;;;5016384;28;20630;-81
2021/05/09 07:11:36;;;;;;;0.50;0.50;;;;;;;;;;5019166;28;20260;-82
2021/05/09 07:14:02;;;;;;;0.45;0.45;;;;;;;;;;5015060;28;20022;-87
2021/05/09 07:16:28;;;;;;;0.47;0.47;;;;;;;;;;5022246;28;20010;-80
2021/05/09 07:18:54;;;;;;;0.40;0.40;;;;;;;;;;5027493;28;20022;-85
2021/05/09 07:21:31;;;;;;;0.95;0.50;;;;;;;;;;5014426;28;20048;-85
2021/05/09 07:23:56;;;;;;;0.43;0.43;;;;;;;;;;5010200;28;20088;-88
2021/05/09 07:26:22;;;;;;;0.57;0.50;;;;;;;;;;5026576;28;20025;-89
2021/05/09 07:28:47;;;;;;;1.17;0.60;;;;;;;;;;5024885;28;20064;-85
2021/05/09 07:31:13;;;;;;;0.55;0.52;;;;;;;;;;5020696;28;20027;-86
2021/05/09 07:33:38;;;;;;;0.50;0.50;;;;;;;;;;5014658;28;20025;-87
2021/05/09 07:36:04;;;;;;;0.40;0.40;;;;;;;;;;5015648;28;20400;-88
2021/05/09 07:38:31;;;;;;;1.05;0.68;;;;;;;;;;5014612;28;20054;-88
2021/05/09 07:40:57;;;;;;;1.13;0.57;;;;;;;;;;5016000;28;20443;-86
2021/05/09 07:43:22;;;;;;;0.50;0.50;;;;;;;;;;5020973;28;20046;-87
2021/05/09 07:45:47;;;;;;;0.40;0.40;;;;;;;;;;5014012;28;20051;-86
2021/05/09 07:48:13;;;;;;;0.60;0.60;;;;;;;;;;5015700;28;20033;-86
2021/05/09 07:50:39;;;;;;;0.60;0.60;;;;;;;;;;5013501;28;20050;-87
2021/05/09 07:53:04;;;;;;;0.60;0.40;;;;;;;;;;5011298;28;20058;-83
2021/05/09 07:55:32;;;;;;;0.65;0.65;;;;;;;;;;5007534;28;20033;-85
2021/05/09 07:57:57;;;;;;;0.77;0.57;;;;;;;;;;5013469;28;20037;-85
2021/05/09 08:00:23;;;;;;;0.90;0.80;;;;;;;;;;5013545;28;20014;-88
2021/05/09 08:02:53;;;;;;;0.75;0.75;;;;;;;;;;5013393;28;20104;-85
2021/05/09 08:05:22;;;;;;;1.00;0.60;;;;;;;;;;5012466;28;20026;-82
2021/05/09 08:07:54;;;;;;;0.55;0.55;;;;;;;;;;5013543;28;20606;-86
2021/05/09 08:10:23;;;;;;;0.50;0.50;;;;;;;;;;5014794;28;20018;-89
2021/05/09 08:12:48;;;;;;;0.50;0.50;;;;;;;;;;5014822;28;20033;-86
2021/05/09 08:15:14;;;;;;;0.50;0.50;;;;;;;;;;5013216;28;20014;-81
2021/05/09 08:17:39;;;;;;;0.40;0.40;;;;;;;;;;5011643;28;20072;-85
2021/05/09 08:20:05;;;;;;;0.55;0.50;;;;;;;;;;5012865;28;20029;-85
2021/05/09 08:22:30;;;;;;;1.27;0.50;;;;;;;;;;5011688;28;20026;-83
2021/05/09 08:24:55;;;;;;;0.40;0.40;;;;;;;;;;5011501;28;20419;-83
2021/05/09 08:27:21;;;;;;;0.73;0.60;;;;;;;;;;5016279;28;20032;-83
2021/05/09 08:29:46;;;;;;;0.70;0.70;;;;;;;;;;5013376;28;20284;-83
2021/05/09 08:32:11;;;;;;;1.07;0.90;;;;;;;;;;5023236;28;20046;-84
2021/05/09 08:34:36;;;;;;;1.50;1.00;;;;;;;;;;5028684;28;20273;-83
2021/05/09 08:37:02;;;;;;;1.20;0.90;;;;;;;;;;5013025;28;20061;-83
2021/05/09 08:39:27;;;;;;;1.85;0.88;;;;;;;;;;5011909;28;20625;-85
2021/05/09 08:41:52;;;;;;;0.98;0.77;;;;;;;;;;5011795;28;20061;-87
2021/05/09 08:44:17;;;;;;;0.80;0.70;;;;;;;;;;5013324;28;20048;-84
2021/05/09 08:46:48;;;;;;;0.70;0.70;;;;;;;;;;5012643;28;20017;-86
2021/05/09 08:49:14;;;;;;;1.42;0.60;;;;;;;;;;5016535;28;20289;-84
2021/05/09 08:51:40;;;;;;;0.68;0.60;;;;;;;;;;5020331;28;20009;-84
2021/05/09 08:54:06;;;;;;;0.63;0.63;;;;;;;;;;5016079;28;20065;-86
2021/05/09 08:56:35;;;;;;;0.82;0.70;;;;;;;;;;5015489;28;20022;-85
2021/05/09 08:59:01;;;;;;;1.20;0.70;;;;;;;;;;5014533;28;20490;-82
2021/05/09 09:01:30;;;;;;;0.60;0.60;;;;;;;;;;5017384;28;20026;-81
2021/05/09 09:03:58;;;;;;;0.82;0.82;;;;;;;;;;5015402;28;20014;-83
2021/05/09 09:06:45;;;;;;;1.20;1.10;;;;;;;;;;5011381;28;20088;-85
2021/05/09 09:09:23;;;;;;;2.13;1.05;;;;;;;;;;5017046;28;20525;-85
2021/05/09 09:11:49;;;;;;;0.80;0.60;;;;;;;;;;5006809;28;20654;-84
2021/05/09 09:14:14;;;;;;;1.23;0.63;;;;;;;;;;5015101;28;20522;-82
2021/05/09 09:16:40;;;;;;;1.17;0.50;;;;;;;;;;5017929;28;20112;-85
2021/05/09 09:19:05;;;;;;;0.63;0.50;;;;;;;;;;5018406;28;20026;-80
2021/05/09 09:21:31;;;;;;;1.15;0.60;;;;;;;;;;5007465;28;20125;-83
2021/05/09 09:23:57;;;;;;;2.85;0.70;;;;;;;;;;5010606;28;20362;-84
2021/05/09 09:26:30;;;;;;;0.80;0.50;;;;;;;;;;5015756;28;20091;-85
2021/05/09 09:28:55;;;;;;;0.60;0.47;;;;;;;;;;5016700;28;20105;-83
2021/05/09 09:31:40;;;;;;;0.70;0.60;;;;;;;;;;5014194;28;20495;-81
2021/05/09 09:34:06;;;;;;;0.52;0.40;;;;;;;;;;5017385;28;20006;-87
2021/05/09 09:36:31;;;;;;;0.63;0.55;;;;;;;;;;5011419;28;20470;-83
2021/05/09 09:38:59;;;;;;;0.47;0.43;;;;;;;;;;5017406;28;20070;-90
2021/05/09 09:41:24;;;;;;;0.98;0.60;;;;;;;;;;5016433;28;20275;-84
2021/05/09 09:44:11;;;;;;;0.85;0.60;;;;;;;;;;5017770;28;20086;-86
2021/05/09 09:46:37;;;;;;;0.60;0.60;;;;;;;;;;5035766;28;20018;-83
2021/05/09 09:49:17;;;;;;;1.38;0.70;;;;;;;;;;5020968;28;20052;-83
2021/05/09 09:51:50;;;;;;;0.60;0.60;;;;;;;;;;5029879;28;20037;-82
2021/05/09 09:54:34;;;;;;;0.82;0.63;;;;;;;;;;5005704;28;20018;-81
2021/05/09 09:57:02;;;;;;;0.60;0.60;;;;;;;;;;5005470;28;20450;-85
2021/05/09 09:59:28;;;;;;;0.75;0.68;;;;;;;;;;5014068;28;20026;-81
2021/05/09 10:01:53;;;;;;;1.73;0.70;;;;;;;;;;5017141;28;20018;-83
2021/05/09 10:04:19;;;;;;;1.83;0.50;;;;;;;;;;5019547;28;20447;-77
2021/05/09 10:06:44;;;;;;;0.40;0.40;;;;;;;;;;5015510;28;20018;-79
2021/05/09 10:09:12;;;;;;;0.50;0.50;;;;;;;;;;5015416;28;20021;-82
2021/05/09 10:11:37;;;;;;;0.80;0.50;;;;;;;;;;5015342;28;20323;-82
2021/05/09 10:14:03;;;;;;;0.50;0.50;;;;;;;;;;5015415;28;20022;-81
2021/05/09 10:16:30;;;;;;;0.45;0.45;;;;;;;;;;5009487;28;20257;-88
2021/05/09 10:18:59;;;;;;;0.63;0.60;;;;;;;;;;5017843;28;20447;-80
2021/05/09 10:21:27;;;;;;;0.75;0.57;;;;;;;;;;5014931;28;20647;-80
2021/05/09 10:24:15;;;;;;;0.55;0.55;;;;;;;;;;5016872;28;20029;-83
2021/05/09 10:26:53;;;;;;;1.23;0.90;;;;;;;;;;5010816;28;20486;-82
2021/05/09 10:29:37;;;;;;;0.73;0.73;;;;;;;;;;5012461;28;20036;-79
2021/05/09 10:32:09;;;;;;;1.10;0.75;;;;;;;;;;5012463;28;20351;-83
2021/05/09 10:34:53;;;;;;;1.77;0.75;;;;;;;;;;5014189;28;20022;-80
2021/05/09 10:37:38;;;;;;;2.05;0.80;;;;;;;;;;5011957;28;20113;-79
2021/05/09 10:40:22;;;;;;;0.90;0.63;;;;;;;;;;5013664;28;20113;-80
2021/05/09 10:42:48;;;;;;;1.95;1.10;;;;;;;;;;5015125;28;20014;-82
2021/05/09 10:45:30;;;;;;;0.80;0.70;;;;;;;;;;5015109;28;20025;-82
2021/05/09 10:48:20;;;;;;;1.70;0.75;;;;;;;;;;5012338;28;20405;-82
2021/05/09 10:50:56;;;;;;;2.05;0.90;;;;;;;;;;5015068;28;20021;-82
2021/05/09 10:53:34;;;;;;;1.02;0.80;;;;;;;;;;5016803;28;20355;-79
2021/05/09 10:56:01;;;;;;;1.42;0.68;;;;;;;;;;5009648;28;20497;-82
2021/05/09 10:58:46;;;;;;;2.03;0.60;;;;;;;;;;5008439;28;20132;-83
2021/05/09 11:01:24;;;;;;;0.60;0.50;;;;;;;;;;5014539;28;20022;-82
2021/05/09 11:03:50;;;;;;;0.85;0.50;;;;;;;;;;5001163;28;20030;-82
2021/05/09 11:06:40;;;;;;;0.47;0.40;;;;;;;;;;5009757;28;20044;-83
2021/05/09 11:09:09;;;;;;;0.60;0.45;;;;;;;;;;5014788;28;20022;-83
2021/05/09 11:11:37;;;;;;;0.80;0.50;;;;;;;;;;5012013;28;20029;-83
2021/05/09 11:14:04;;;;;;;0.75;0.40;;;;;;;;;;5015445;28;20561;-83
2021/05/09 11:16:29;;;;;;;1.05;0.60;;;;;;;;;;5014201;28;20030;-83
2021/05/09 11:18:58;;;;;;;0.50;0.50;;;;;;;;;;5014177;28;20021;-81
2021/05/09 11:21:33;;;;;;;0.80;0.63;;;;;;;;;;5013804;28;20383;-82
2021/05/09 11:23:59;;;;;;;1.35;0.60;;;;;;;;;;5014021;28;20103;-78
2021/05/09 11:26:25;;;;;;;0.65;0.60;;;;;;;;;;5012317;28;20025;-81
2021/05/09 11:29:06;;;;;;;0.45;0.40;;;;;;;;;;5012919;28;20101;-78
2021/05/09 11:31:32;;;;;;;1.67;0.55;;;;;;;;;;5011853;28;20056;-82
2021/05/09 11:33:59;;;;;;;1.58;0.77;;;;;;;;;;5013172;28;20045;-81
2021/05/09 11:36:25;;;;;;;0.73;0.40;;;;;;;;;;5011821;28;20032;-79
2021/05/09 11:38:50;;;;;;;0.30;0.30;;;;;;;;;;5012040;28;20344;-80
2021/05/09 11:41:16;;;;;;;0.40;0.40;;;;;;;;;;5013115;28;20045;-80
2021/05/09 11:44:02;;;;;;;0.47;0.43;;;;;;;;;;5014256;28;20735;-81
2021/05/09 11:46:34;;;;;;;1.55;1.00;;;;;;;;;;5013281;28;20148;-79
2021/05/09 11:49:19;;;;;;;0.70;0.70;;;;;;;;;;5013508;28;20034;-85
2021/05/09 11:51:54;;;;;;;0.80;0.60;;;;;;;;;;5014443;28;20018;-79
2021/05/09 11:54:21;;;;;;;0.50;0.50;;;;;;;;;;5013322;28;20057;-81
2021/05/09 11:57:05;;;;;;;0.85;0.50;;;;;;;;;;5012996;28;20485;-84
2021/05/09 11:59:38;;;;;;;0.65;0.50;;;;;;;;;;5012956;28;20029;-87
2021/05/09 12:02:06;;;;;;;0.93;0.40;;;;;;;;;;5013872;28;20152;-87
2021/05/09 12:04:31;;;;;;;0.32;0.30;;;;;;;;;;5013549;28;20017;-82
2021/05/09 12:07:00;;;;;;;0.65;0.40;;;;;;;;;;5012456;28;20014;-86
2021/05/09 12:09:26;;;;;;;0.75;0.75;;;;;;;;;;5002248;28;20459;-84
2021/05/09 12:11:55;;;;;;;1.02;0.77;;;;;;;;;;5006722;28;20045;-85
2021/05/09 12:14:22;;;;;;;1.08;0.70;;;;;;;;;;5010868;28;20025;-85
2021/05/09 12:16:47;;;;;;;0.50;0.50;;;;;;;;;;5013975;28;20029;-87
2021/05/09 12:19:13;;;;;;;1.97;0.30;;;;;;;;;;5014906;28;20554;-85
2021/05/09 12:21:38;;;;;;;0.60;0.40;;;;;;;;;;5014513;28;20264;-82
2021/05/09 12:24:04;;;;;;;1.75;0.30;;;;;;;;;;5020109;28;20398;-80
2021/05/09 12:26:30;;;;;;;0.40;0.20;;;;;;;;;;5017146;28;20026;-84
2021/05/09 12:29:14;;;;;;;0.35;0.20;;;;;;;;;;5013039;28;20026;-85
2021/05/09 12:31:39;;;;;;;0.10;0.10;;;;;;;;;;5015394;28;20160;-80
2021/05/09 12:34:05;;;;;;;0.43;0.30;;;;;;;;;;5015599;28;20112;-80
2021/05/09 12:36:35;;;;;;;0.30;0.23;;;;;;;;;;5013631;28;20034;-80
2021/05/09 12:39:03;;;;;;;0.63;0.43;;;;;;;;;;5016868;28;20037;-81
2021/05/09 12:41:30;;;;;;;0.95;0.50;;;;;;;;;;5015391;28;20029;-81
2021/05/09 12:43:56;;;;;;;0.90;0.47;;;;;;;;;;5012268;28;20681;-83
2021/05/09 12:46:47;;;;;;;0.95;0.30;;;;;;;;;;5015464;28;20018;-81
2021/05/09 12:49:13;;;;;;;0.47;0.30;;;;;;;;;;5017069;28;20111;-83
2021/05/09 12:52:06;;;;;;;3.03;0.45;;;;;;;;;;5017052;28;20018;-81
2021/05/09 12:54:42;;;;;;;0.17;0.17;;;;;;;;;;5012807;28;20168;-83
2021/05/09 12:57:23;;;;;;;0.17;0.15;;;;;;;;;;5018175;28;20525;-79
2021/05/09 12:59:50;;;;;;;0.20;0.20;;;;;;;;;;5004984;28;20049;-84
2021/05/09 13:02:18;;;;;;;1.38;0.40;;;;;;;;;;5016451;28;20014;-86
2021/05/09 13:04:54;;;;;;;0.40;0.40;;;;;;;;;;5014307;28;20018;-86
2021/05/09 13:07:21;;;;;;;0.52;0.30;;;;;;;;;;5020602;28;20347;-83
2021/05/09 13:09:47;;;;;;;0.30;0.20;;;;;;;;;;5022916;28;20026;-86
2021/05/09 13:12:15;;;;;;;0.22;0.10;;;;;;;;;;5016225;28;20034;-85
2021/05/09 13:14:44;;;;;;;0.20;0.20;;;;;;;;;;5016578;28;20365;-87
2021/05/09 13:17:13;;;;;;;0.20;0.10;;;;;;;;;;5017172;28;20017;-87
2021/05/09 13:19:39;;;;;;;0.10;0.10;;;;;;;;;;5030720;28;20071;-82
2021/05/09 13:22:05;;;;;;;0.10;0.10;;;;;;;;;;5015669;28;20354;-84
2021/05/09 13:24:31;;;;;;;0.10;0.10;;;;;;;;;;5014085;28;20149;-84
2021/05/09 13:26:56;;;;;;;0.30;0.10;;;;;;;;;;5014424;28;20042;-86
2021/05/09 13:29:21;;;;;;;0.17;0.10;;;;;;;;;;5018627;28;20036;-87
2021/05/09 13:31:46;;;;;;;0.20;0.20;;;;;;;;;;5016800;28;20096;-84
2021/05/09 13:34:12;;;;;;;0.10;0.10;;;;;;;;;;5015152;28;20132;-87
2021/05/09 13:36:37;;;;;;;0.10;0.10;;;;;;;;;;5015908;28;20034;-86
2021/05/09 13:39:03;;;;;;;0.10;0.10;;;;;;;;;;5015659;28;20446;-88
2021/05/09 13:41:28;;;;;;;0.80;0.10;;;;;;;;;;5014261;28;20277;-84
2021/05/09 13:43:54;;;;;;;0.20;0.20;;;;;;;;;;5017774;28;20018;-84
2021/05/09 13:46:19;;;;;;;0.10;0.10;;;;;;;;;;5012482;28;20052;-85
2021/05/09 13:48:44;;;;;;;0.50;0.30;;;;;;;;;;5017149;28;20037;-83
2021/05/09 13:51:10;;;;;;;0.33;0.20;;;;;;;;;;5017889;28;20464;-87
2021/05/09 13:53:37;;;;;;;0.37;0.20;;;;;;;;;;5015307;28;20042;-86
2021/05/09 13:56:03;;;;;;;0.43;0.20;;;;;;;;;;5015450;28;20026;-87
2021/05/09 13:58:32;;;;;;;0.60;0.30;;;;;;;;;;5018482;28;20022;-89
2021/05/09 14:00:58;;;;;;;0.75;0.30;;;;;;;;;;5016366;28;20029;-90
2021/05/09 14:03:25;;;;;;;1.07;0.33;;;;;;;;;;5014791;28;20026;-88
2021/05/09 14:05:53;;;;;;;0.88;0.40;;;;;;;;;;5014088;28;20090;-85
2021/05/09 14:08:18;;;;;;;0.40;0.20;;;;;;;;;;5018205;28;20029;-87
2021/05/09 14:10:44;;;;;;;0.83;0.20;;;;;;;;;;5018645;28;20397;-87
2021/05/09 14:13:09;;;;;;;1.17;0.30;;;;;;;;;;5017195;28;20268;-86
2021/05/09 14:15:35;;;;;;;0.50;0.30;;;;;;;;;;5019471;28;20025;-84
2021/05/09 14:18:00;;;;;;;0.15;0.15;;;;;;;;;;5040764;28;20332;-83
2021/05/09 14:20:26;;;;;;;0.40;0.20;;;;;;;;;;5025058;28;20382;-87
2021/05/09 14:22:53;;;;;;;1.00;0.23;;;;;;;;;;5031359;28;20030;-86
2021/05/09 14:25:18;;;;;;;0.57;0.20;;;;;;;;;;5013640;28;20021;-86
2021/05/09 14:27:48;;;;;;;0.52;0.20;;;;;;;;;;5012104;28;20084;-89
2021/05/09 14:30:14;;;;;;;0.38;0.15;;;;;;;;;;5013391;28;20029;-82
2021/05/09 14:32:39;;;;;;;0.15;0.10;;;;;;;;;;5015060;28;20046;-85
2021/05/09 14:35:05;;;;;;;0.53;0.17;;;;;;;;;;5017363;28;20087;-86
2021/05/09 14:37:30;;;;;;;0.22;0.20;;;;;;;;;;5020022;28;20045;-87
2021/05/09 14:39:55;;;;;;;0.57;0.27;;;;;;;;;;5015006;28;20084;-84
2021/05/09 14:42:20;;;;;;;0.33;0.10;;;;;;;;;;5014718;28;20117;-80
2021/05/09 14:44:46;;;;;;;0.10;0.10;;;;;;;;;;5014376;28;20057;-84